Red Bluff — WDC6944 — position and weather

sailwx.info

Track history (hours):
 
Tides and Currents Weather Stations Pressure Air Temp Water Temp Dewpoint Dewpoint Depression Visibility Wind Speed Wind Dir Waves Ship Positions

Red Bluff

Owner: Star Marine Inc, Bainbridge Island, WA. More information available from US FCC via Universal Licensing System and Coast Guard Vessel Documentation Center.

Last reported at 2018-Jul-18 04:31 UTC. Time now 2018-Jul-23 04:06 UTC.
Position N 47°37' W 122°31'.

; draft 10 m.

Type: Tug. MMSI: 367063680.

Date/timePositionNaut miles runAvg speedWind from/ knotsBaromVisibWave heightAir tempDewpointWater temp
2018-Jul-18 04:31N 47°37' W 122°31'4 7.2
2018-Jul-18 04:00N 47°34' W 122°28'510.5
2018-Jul-18 03:31N 47°29' W 122°30'510.4
2018-Jul-18 03:00N 47°24' W 122°32'510.0
2018-Jul-18 02:30N 47°19' W 122°30'4 3.9
2018-Jul-18 01:26N 47°17' W 122°25'2 4.3
2018-Jul-18 01:00N 47°18' W 122°27'2 4.8
2018-Jul-18 00:30N 47°20' W 122°29'0 0.4
2018-Jul-17 23:59N 47°20' W 122°29'0 0.0
2018-Jul-17 23:30N 47°20' W 122°29'0 0.1
2018-Jul-17 22:59N 47°21' W 122°29'0 0.1
2018-Jul-17 22:29N 47°21' W 122°29'0 0.1
2018-Jul-17 22:00N 47°20' W 122°29'0 0.1
2018-Jul-17 21:27N 47°20' W 122°29'0 0.0
2018-Jul-17 20:56N 47°20' W 122°29'0 0.1
2018-Jul-17 20:29N 47°20' W 122°29'4 7.5
2018-Jul-17 20:00N 47°22' W 122°24'4 8.7
2018-Jul-17 19:30N 47°26' W 122°25'5 9.9
2018-Jul-17 19:00N 47°31' W 122°27'510.0
2018-Jul-17 18:30N 47°36' W 122°28'5 9.8
2018-Jul-17 18:00N 47°41' W 122°29'5 9.4
2018-Jul-17 17:30N 47°45' W 122°27'5 9.6
2018-Jul-17 17:00N 47°50' W 122°24'510.8
2018-Jul-17 16:30N 47°55' W 122°21'510.5
2018-Jul-17 16:00N 47°59' W 122°15'2 0.8
2018-Jul-17 13:03N 48°01' W 122°13'1 5.0
2018-Jul-17 12:48N 47°59' W 122°14'1 2.1
2018-Jul-17 12:30N 47°59' W 122°15'0 0.0
2018-Jul-17 12:00N 47°59' W 122°15'0 0.0
2018-Jul-17 11:24N 47°59' W 122°15'0 0.0
2018-Jul-17 10:56N 47°59' W 122°15'0 0.0
2018-Jul-17 10:23N 47°59' W 122°15'0 0.0
2018-Jul-17 09:59N 47°59' W 122°15'0 0.0
2018-Jul-17 09:29N 47°59' W 122°15'1 1.5
2018-Jul-17 08:47N 47°59' W 122°16'2 5.2
2018-Jul-17 08:28N 47°58' W 122°18'2 4.5
2018-Jul-17 08:00N 47°56' W 122°20'2 4.4
2018-Jul-17 07:30N 47°54' W 122°21'2 4.7
2018-Jul-17 07:00N 47°52' W 122°23'3 5.5
2018-Jul-17 06:30N 47°50' W 122°24'3 5.8
2018-Jul-17 06:00N 47°47' W 122°25'3 5.9
2018-Jul-17 05:30N 47°44' W 122°26'3 6.1
2018-Jul-17 05:00N 47°41' W 122°27'3 6.0
2018-Jul-17 04:30N 47°38' W 122°27'3 5.7
2018-Jul-17 04:00N 47°35' W 122°26'3 5.5
2018-Jul-17 03:30N 47°32' W 122°25'3 5.2
2018-Jul-17 03:00N 47°30' W 122°25'2 5.0
2018-Jul-17 02:30N 47°27' W 122°24'2 4.7
2018-Jul-17 02:00N 47°25' W 122°22'2 4.5
2018-Jul-17 01:30N 47°23' W 122°21'2 4.9
2018-Jul-17 01:00N 47°21' W 122°23'3 5.1
2018-Jul-17 00:30N 47°20' W 122°26'4 2.8
2018-Jul-16 23:10N 47°17' W 122°23'1 2.2
2018-Jul-16 22:42N 47°17' W 122°25'2 9.1
2018-Jul-16 22:30N 47°18' W 122°27'5 9.3
2018-Jul-16 22:00N 47°22' W 122°24'4 9.0
2018-Jul-16 21:30N 47°26' W 122°25'510.3
2018-Jul-16 21:00N 47°31' W 122°27'510.3
2018-Jul-16 20:30N 47°36' W 122°29'2 3.2
2018-Jul-16 19:59N 47°37' W 122°31'0 0.0
2018-Jul-16 19:27N 47°37' W 122°31'17 0.4
2018-Jul-14 19:47N 47°20' W 122°29'0 0.1
2018-Jul-14 19:30N 47°20' W 122°29'0 0.0
2018-Jul-14 19:00N 47°20' W 122°29'0 0.0
2018-Jul-14 18:30N 47°20' W 122°29'0 0.1
2018-Jul-14 18:00N 47°20' W 122°29'0 0.7
2018-Jul-14 17:29N 47°20' W 122°29'0 0.3
2018-Jul-14 17:00N 47°20' W 122°29'0 0.2
2018-Jul-14 16:30N 47°20' W 122°29'0 0.5
2018-Jul-14 16:00N 47°20' W 122°28'3 5.5
2018-Jul-14 15:28N 47°18' W 122°26'2 1.4
2018-Jul-14 14:02N 47°17' W 122°23'0 0.0
2018-Jul-14 10:05N 47°17' W 122°23'0 0.0
2018-Jul-14 09:48N 47°17' W 122°23'0 0.0
2018-Jul-14 09:29N 47°17' W 122°23'1 0.1
2018-Jul-14 02:01N 47°17' W 122°25'0 8.3
2018-Jul-14 02:00N 47°17' W 122°25'3 7.1
2018-Jul-14 01:30N 47°21' W 122°26'4 8.5
2018-Jul-14 01:00N 47°24' W 122°23'510.0
2018-Jul-14 00:30N 47°29' W 122°26'5 9.2
2018-Jul-14 00:00N 47°33' W 122°28'5 9.5
2018-Jul-13 23:31N 47°38' W 122°29'5 9.2
2018-Jul-13 23:00N 47°43' W 122°28'5 9.1
2018-Jul-13 22:30N 47°47' W 122°28'5 9.3
2018-Jul-13 22:00N 47°52' W 122°29'  
2018-Jul-11 16:50N 47°57' W 122°35'3 8.6
2018-Jul-11 16:26N 47°55' W 122°31'4 8.9
2018-Jul-11 16:01N 47°54' W 122°26'4 7.1
2018-Jul-11 15:31N 47°55' W 122°21'4 8.2
2018-Jul-11 15:00N 47°58' W 122°16'2 2.8
2018-Jul-11 14:11N 47°59' W 122°13'1 4.0
2018-Jul-11 14:00N 47°59' W 122°14'2 3.1
2018-Jul-11 13:28N 47°58' W 122°16'3 6.7
2018-Jul-11 13:00N 47°56' W 122°20'4 8.1
2018-Jul-11 12:30N 47°53' W 122°24'4 8.5
2018-Jul-11 12:00N 47°55' W 122°30'  
Track history (hours):
 
Tides and Currents Weather Stations Pressure Air Temp Water Temp Dewpoint Dewpoint Depression Visibility Wind Speed Wind Dir Waves Ship Positions

Red Bluff

Owner: Star Marine Inc, Bainbridge Island, WA. More information available from US FCC via Universal Licensing System and Coast Guard Vessel Documentation Center.

Last reported at 2018-Jul-18 04:31 UTC. Time now 2018-Jul-23 04:06 UTC.
Position N 47°37' W 122°31'.

; draft 10 m.

Type: Tug. MMSI: 367063680.

Date/timePositionNaut miles runAvg speedWind from/ knotsBaromVisibWave heightAir tempDewpointWater temp
2018-Jul-18 04:31N 47°37' W 122°31'4 7.2
2018-Jul-18 04:00N 47°34' W 122°28'510.5
2018-Jul-18 03:31N 47°29' W 122°30'510.4
2018-Jul-18 03:00N 47°24' W 122°32'510.0
2018-Jul-18 02:30N 47°19' W 122°30'4 3.9
2018-Jul-18 01:26N 47°17' W 122°25'2 4.3
2018-Jul-18 01:00N 47°18' W 122°27'2 4.8
2018-Jul-18 00:30N 47°20' W 122°29'0 0.4
2018-Jul-17 23:59N 47°20' W 122°29'0 0.0
2018-Jul-17 23:30N 47°20' W 122°29'0 0.1
2018-Jul-17 22:59N 47°21' W 122°29'0 0.1
2018-Jul-17 22:29N 47°21' W 122°29'0 0.1
2018-Jul-17 22:00N 47°20' W 122°29'0 0.1
2018-Jul-17 21:27N 47°20' W 122°29'0 0.0
2018-Jul-17 20:56N 47°20' W 122°29'0 0.1
2018-Jul-17 20:29N 47°20' W 122°29'4 7.5
2018-Jul-17 20:00N 47°22' W 122°24'4 8.7
2018-Jul-17 19:30N 47°26' W 122°25'5 9.9
2018-Jul-17 19:00N 47°31' W 122°27'510.0
2018-Jul-17 18:30N 47°36' W 122°28'5 9.8
2018-Jul-17 18:00N 47°41' W 122°29'5 9.4
2018-Jul-17 17:30N 47°45' W 122°27'5 9.6
2018-Jul-17 17:00N 47°50' W 122°24'510.8
2018-Jul-17 16:30N 47°55' W 122°21'510.5
2018-Jul-17 16:00N 47°59' W 122°15'2 0.8
2018-Jul-17 13:03N 48°01' W 122°13'1 5.0
2018-Jul-17 12:48N 47°59' W 122°14'1 2.1
2018-Jul-17 12:30N 47°59' W 122°15'0 0.0
2018-Jul-17 12:00N 47°59' W 122°15'0 0.0
2018-Jul-17 11:24N 47°59' W 122°15'0 0.0
2018-Jul-17 10:56N 47°59' W 122°15'0 0.0
2018-Jul-17 10:23N 47°59' W 122°15'0 0.0
2018-Jul-17 09:59N 47°59' W 122°15'0 0.0
2018-Jul-17 09:29N 47°59' W 122°15'1 1.5
2018-Jul-17 08:47N 47°59' W 122°16'2 5.2
2018-Jul-17 08:28N 47°58' W 122°18'2 4.5
2018-Jul-17 08:00N 47°56' W 122°20'2 4.4
2018-Jul-17 07:30N 47°54' W 122°21'2 4.7
2018-Jul-17 07:00N 47°52' W 122°23'3 5.5
2018-Jul-17 06:30N 47°50' W 122°24'3 5.8
2018-Jul-17 06:00N 47°47' W 122°25'3 5.9
2018-Jul-17 05:30N 47°44' W 122°26'3 6.1
2018-Jul-17 05:00N 47°41' W 122°27'3 6.0
2018-Jul-17 04:30N 47°38' W 122°27'3 5.7
2018-Jul-17 04:00N 47°35' W 122°26'3 5.5
2018-Jul-17 03:30N 47°32' W 122°25'3 5.2
2018-Jul-17 03:00N 47°30' W 122°25'2 5.0
2018-Jul-17 02:30N 47°27' W 122°24'2 4.7
2018-Jul-17 02:00N 47°25' W 122°22'2 4.5
2018-Jul-17 01:30N 47°23' W 122°21'2 4.9
2018-Jul-17 01:00N 47°21' W 122°23'3 5.1
2018-Jul-17 00:30N 47°20' W 122°26'4 2.8
2018-Jul-16 23:10N 47°17' W 122°23'1 2.2
2018-Jul-16 22:42N 47°17' W 122°25'2 9.1
2018-Jul-16 22:30N 47°18' W 122°27'5 9.3
2018-Jul-16 22:00N 47°22' W 122°24'4 9.0
2018-Jul-16 21:30N 47°26' W 122°25'510.3
2018-Jul-16 21:00N 47°31' W 122°27'510.3
2018-Jul-16 20:30N 47°36' W 122°29'2 3.2
2018-Jul-16 19:59N 47°37' W 122°31'0 0.0
2018-Jul-16 19:27N 47°37' W 122°31'17 0.4
2018-Jul-14 19:47N 47°20' W 122°29'0 0.1
2018-Jul-14 19:30N 47°20' W 122°29'0 0.0
2018-Jul-14 19:00N 47°20' W 122°29'0 0.0
2018-Jul-14 18:30N 47°20' W 122°29'0 0.1
2018-Jul-14 18:00N 47°20' W 122°29'0 0.7
2018-Jul-14 17:29N 47°20' W 122°29'0 0.3
2018-Jul-14 17:00N 47°20' W 122°29'0 0.2
2018-Jul-14 16:30N 47°20' W 122°29'0 0.5
2018-Jul-14 16:00N 47°20' W 122°28'3 5.5
2018-Jul-14 15:28N 47°18' W 122°26'2 1.4
2018-Jul-14 14:02N 47°17' W 122°23'0 0.0
2018-Jul-14 10:05N 47°17' W 122°23'0 0.0
2018-Jul-14 09:48N 47°17' W 122°23'0 0.0
2018-Jul-14 09:29N 47°17' W 122°23'1 0.1
2018-Jul-14 02:01N 47°17' W 122°25'0 8.3
2018-Jul-14 02:00N 47°17' W 122°25'3 7.1
2018-Jul-14 01:30N 47°21' W 122°26'4 8.5
2018-Jul-14 01:00N 47°24' W 122°23'510.0
2018-Jul-14 00:30N 47°29' W 122°26'5 9.2
2018-Jul-14 00:00N 47°33' W 122°28'5 9.5
2018-Jul-13 23:31N 47°38' W 122°29'5 9.2
2018-Jul-13 23:00N 47°43' W 122°28'5 9.1
2018-Jul-13 22:30N 47°47' W 122°28'5 9.3
2018-Jul-13 22:00N 47°52' W 122°29'  
2018-Jul-11 16:50N 47°57' W 122°35'3 8.6
2018-Jul-11 16:26N 47°55' W 122°31'4 8.9
2018-Jul-11 16:01N 47°54' W 122°26'4 7.1
2018-Jul-11 15:31N 47°55' W 122°21'4 8.2
2018-Jul-11 15:00N 47°58' W 122°16'2 2.8
2018-Jul-11 14:11N 47°59' W 122°13'1 4.0
2018-Jul-11 14:00N 47°59' W 122°14'2 3.1
2018-Jul-11 13:28N 47°58' W 122°16'3 6.7
2018-Jul-11 13:00N 47°56' W 122°20'4 8.1
2018-Jul-11 12:30N 47°53' W 122°24'4 8.5
2018-Jul-11 12:00N 47°55' W 122°30'  

Dump ship's entire track history